createdAt,value
2022-10-19T00:00:22.749Z,3.57
2022-10-19T00:02:51.081Z,3.47
2022-10-19T00:05:19.409Z,3.50
2022-10-19T00:07:47.651Z,3.83
2022-10-19T00:10:17.467Z,3.30
2022-10-19T00:12:45.772Z,3.30
2022-10-19T00:15:14.114Z,3.23
2022-10-19T00:17:43.237Z,3.00
2022-10-19T00:20:11.927Z,3.20
2022-10-19T00:22:40.273Z,3.40
2022-10-19T00:25:09.213Z,3.40
2022-10-19T00:27:38.915Z,3.67
2022-10-19T00:30:07.790Z,3.33
2022-10-19T00:32:41.433Z,3.30
2022-10-19T00:35:10.154Z,3.10
2022-10-19T00:37:38.410Z,3.10
2022-10-19T00:40:07.190Z,3.43
2022-10-19T00:42:35.718Z,3.10
2022-10-19T00:45:13.292Z,3.20
2022-10-19T00:47:42.055Z,3.43
2022-10-19T00:50:11.526Z,3.40
2022-10-19T00:52:39.905Z,2.93
2022-10-19T00:55:08.859Z,3.00
2022-10-19T00:57:37.609Z,3.40
2022-10-19T01:00:07.664Z,3.80
2022-10-19T01:02:37.761Z,3.17
2022-10-19T01:05:06.537Z,3.37
2022-10-19T01:07:35.089Z,3.40
2022-10-19T01:10:03.823Z,3.30
2022-10-19T01:12:49.773Z,3.20
2022-10-19T01:15:22.805Z,3.27
2022-10-19T01:18:01.164Z,3.27
2022-10-19T01:20:42.098Z,3.10
2022-10-19T01:23:28.055Z,3.40
2022-10-19T01:25:57.560Z,3.30
2022-10-19T01:28:34.345Z,3.20
2022-10-19T01:31:05.622Z,3.57
2022-10-19T01:33:37.904Z,3.50
2022-10-19T01:36:10.640Z,3.33
2022-10-19T01:38:42.797Z,3.67
2022-10-19T01:41:17.654Z,3.20
2022-10-19T01:43:48.752Z,3.17
2022-10-19T01:46:20.485Z,3.53
2022-10-19T01:48:52.996Z,3.60
2022-10-19T01:51:23.780Z,3.40
2022-10-19T01:53:54.805Z,3.53
2022-10-19T01:56:25.831Z,3.37
2022-10-19T01:58:56.754Z,3.23
2022-10-19T02:01:28.158Z,3.13
2022-10-19T02:03:56.817Z,3.60
2022-10-19T02:06:25.347Z,3.40
2022-10-19T02:08:54.876Z,3.90
2022-10-19T02:11:23.795Z,3.80
2022-10-19T02:13:54.278Z,3.23
2022-10-19T02:16:25.809Z,3.40
2022-10-19T02:18:56.671Z,3.93
2022-10-19T02:21:25.400Z,3.83
2022-10-19T02:23:54.279Z,3.40
2022-10-19T02:26:22.768Z,3.70
2022-10-19T02:28:51.325Z,4.00
2022-10-19T02:31:19.592Z,3.70
2022-10-19T02:33:48.022Z,3.53
2022-10-19T02:36:17.760Z,3.50
2022-10-19T02:38:46.368Z,4.00
2022-10-19T02:41:16.297Z,3.90
2022-10-19T02:43:46.546Z,3.93
2022-10-19T02:46:17.757Z,4.20
2022-10-19T02:48:46.059Z,3.70
2022-10-19T02:51:32.089Z,4.53
2022-10-19T02:54:04.137Z,3.37
2022-10-19T02:56:33.659Z,3.87
2022-10-19T02:59:02.176Z,3.80
2022-10-19T03:01:40.274Z,3.77
2022-10-19T03:04:30.905Z,3.43
2022-10-19T03:07:00.499Z,4.43
2022-10-19T03:09:28.705Z,3.70
2022-10-19T03:11:56.999Z,3.77
2022-10-19T03:14:25.186Z,4.53
2022-10-19T03:16:53.373Z,3.57
2022-10-19T03:19:21.598Z,3.93
2022-10-19T03:21:49.801Z,3.93
2022-10-19T03:24:19.446Z,3.63
2022-10-19T03:26:47.656Z,3.70
2022-10-19T03:29:15.861Z,3.73
2022-10-19T03:31:44.019Z,3.80
2022-10-19T03:34:12.200Z,3.90
2022-10-19T03:36:40.992Z,3.47
2022-10-19T03:39:10.031Z,3.50
2022-10-19T03:41:40.109Z,4.03
2022-10-19T03:44:09.048Z,3.77
2022-10-19T03:46:37.540Z,3.50
2022-10-19T03:49:06.214Z,3.67
2022-10-19T03:51:34.887Z,3.80
2022-10-19T03:54:04.707Z,3.63
2022-10-19T03:56:33.629Z,3.20
2022-10-19T03:59:04.559Z,3.90
2022-10-19T04:01:33.812Z,3.57
2022-10-19T04:04:02.981Z,3.77
2022-10-19T04:06:31.912Z,4.17
2022-10-19T04:09:00.200Z,3.63
2022-10-19T04:11:29.573Z,3.37
2022-10-19T04:13:58.813Z,3.83
2022-10-19T04:16:29.171Z,3.57
2022-10-19T04:18:57.732Z,3.77
2022-10-19T04:21:26.827Z,4.17
2022-10-19T04:23:56.185Z,3.73
2022-10-19T04:26:24.482Z,4.10
2022-10-19T04:28:52.709Z,4.30
2022-10-19T04:31:20.912Z,4.60
2022-10-19T04:33:50.505Z,4.63
2022-10-19T04:36:18.758Z,4.20
2022-10-19T04:38:46.925Z,3.73
2022-10-19T04:41:16.127Z,4.00
2022-10-19T04:43:45.222Z,4.73
2022-10-19T04:46:14.624Z,4.40
2022-10-19T04:48:43.138Z,3.63
2022-10-19T04:51:13.269Z,3.70
2022-10-19T04:53:42.433Z,4.47
2022-10-19T04:56:11.690Z,4.10
2022-10-19T04:58:40.052Z,4.13
2022-10-19T05:01:09.509Z,4.17
2022-10-19T05:03:37.745Z,3.70
2022-10-19T05:06:06.062Z,3.80
2022-10-19T05:08:36.068Z,4.20
2022-10-19T05:11:04.561Z,3.27
2022-10-19T05:13:33.435Z,3.50
2022-10-19T05:16:02.586Z,3.40
2022-10-19T05:18:30.760Z,3.63
2022-10-19T05:21:02.975Z,4.63
2022-10-19T05:26:10.113Z,4.03
2022-10-19T05:28:38.566Z,3.70
2022-10-19T05:31:07.635Z,3.53
2022-10-19T05:33:35.802Z,3.50
2022-10-19T05:36:11.869Z,3.27
2022-10-19T05:38:40.046Z,3.30
2022-10-19T05:41:09.605Z,3.57
2022-10-19T05:43:40.721Z,4.50
2022-10-19T05:46:10.454Z,3.90
2022-10-19T05:48:39.072Z,4.80
2022-10-19T05:51:07.891Z,4.03
2022-10-19T05:53:36.477Z,4.20
2022-10-19T05:56:06.046Z,3.97
2022-10-19T05:58:36.151Z,5.43
2022-10-19T06:01:04.621Z,4.00
2022-10-19T06:03:32.857Z,4.00
2022-10-19T06:06:03.855Z,5.60
2022-10-19T06:08:32.118Z,4.93
2022-10-19T06:11:06.169Z,4.07
2022-10-19T06:13:35.911Z,4.20
2022-10-19T06:16:04.084Z,4.20
2022-10-19T06:18:32.243Z,3.93
2022-10-19T06:21:03.803Z,4.23
2022-10-19T06:23:32.359Z,5.10
2022-10-19T06:26:01.050Z,4.60
2022-10-19T06:28:29.265Z,6.53
2022-10-19T06:31:00.710Z,7.00
2022-10-19T06:33:29.952Z,7.50
2022-10-19T06:35:58.117Z,7.30
2022-10-19T06:38:26.347Z,7.10
2022-10-19T06:40:54.523Z,7.70
2022-10-19T06:43:22.701Z,6.97
2022-10-19T06:45:50.860Z,5.43
2022-10-19T06:48:20.399Z,7.73
2022-10-19T06:50:48.568Z,5.53
2022-10-19T06:53:16.769Z,7.20
2022-10-19T06:55:44.960Z,6.57
2022-10-19T06:58:13.181Z,5.80
2022-10-19T07:00:41.419Z,4.87
2022-10-19T07:03:09.649Z,4.93
2022-10-19T07:05:39.175Z,5.77
2022-10-19T07:08:08.238Z,5.30
2022-10-19T07:10:38.025Z,5.10
2022-10-19T07:13:06.227Z,5.80
2022-10-19T07:15:34.432Z,6.37
2022-10-19T07:18:02.588Z,6.23
2022-10-19T07:20:30.768Z,6.47
2022-10-19T07:23:00.305Z,6.20
2022-10-19T07:25:28.518Z,7.73
2022-10-19T07:27:56.694Z,5.87
2022-10-19T07:30:25.514Z,6.07
2022-10-19T07:32:53.729Z,5.80
2022-10-19T07:35:21.942Z,5.40
2022-10-19T07:37:50.215Z,4.80
2022-10-19T07:40:19.840Z,5.73
2022-10-19T07:42:48.079Z,4.87
2022-10-19T07:45:16.295Z,5.20
2022-10-19T07:47:44.487Z,5.40
2022-10-19T07:50:12.644Z,4.83
2022-10-19T07:52:41.152Z,5.23
2022-10-19T07:55:09.978Z,5.00
2022-10-19T07:57:41.557Z,5.13
2022-10-19T08:00:12.802Z,4.33
2022-10-19T08:02:54.887Z,5.07
2022-10-19T08:05:28.229Z,5.33
2022-10-19T08:07:56.516Z,4.50
2022-10-19T08:10:24.794Z,4.70
2022-10-19T08:12:54.296Z,4.70
2022-10-19T08:15:22.872Z,5.10
2022-10-19T08:17:51.627Z,4.40
2022-10-19T08:20:19.992Z,4.70
2022-10-19T08:22:48.237Z,4.73
2022-10-19T08:25:16.513Z,4.50
2022-10-19T08:27:44.702Z,4.43
2022-10-19T08:30:14.348Z,4.10
2022-10-19T08:32:42.562Z,6.37
2022-10-19T08:35:11.043Z,5.83
2022-10-19T08:37:44.681Z,4.60
2022-10-19T08:40:18.463Z,4.80
2022-10-19T08:42:52.209Z,4.43
2022-10-19T08:45:38.751Z,4.63
2022-10-19T08:48:24.204Z,4.40
2022-10-19T08:50:52.715Z,4.57
2022-10-19T08:53:24.049Z,4.33
2022-10-19T08:55:57.862Z,3.80
2022-10-19T08:58:37.834Z,4.20
2022-10-19T09:01:08.843Z,4.00
2022-10-19T09:06:22.535Z,3.33
2022-10-19T09:08:52.276Z,3.37
2022-10-19T09:11:25.776Z,3.93
2022-10-19T09:14:05.124Z,3.63
2022-10-19T09:16:34.879Z,3.43
2022-10-19T09:19:03.293Z,3.87
2022-10-19T09:21:46.046Z,3.47
2022-10-19T09:24:20.012Z,3.40
2022-10-19T09:26:52.910Z,4.03
2022-10-19T09:29:26.001Z,4.23
2022-10-19T09:31:55.886Z,3.10
2022-10-19T09:34:26.103Z,3.00
2022-10-19T09:36:57.264Z,3.00
2022-10-19T09:39:29.312Z,2.87
2022-10-19T09:41:59.221Z,4.93
2022-10-19T09:44:28.438Z,2.90
2022-10-19T09:46:59.739Z,2.53
2022-10-19T09:49:41.713Z,3.00
2022-10-19T09:52:25.787Z,7.03
2022-10-19T09:55:01.295Z,2.30
2022-10-19T09:57:29.599Z,2.50
2022-10-19T09:59:57.774Z,2.30
2022-10-19T10:02:30.874Z,2.30
2022-10-19T10:05:04.716Z,2.37
2022-10-19T10:07:37.264Z,2.30
2022-10-19T10:10:10.980Z,2.03
2022-10-19T10:12:41.909Z,2.20
2022-10-19T10:15:10.487Z,1.80
2022-10-19T10:17:38.714Z,2.30
2022-10-19T10:20:19.429Z,2.10
2022-10-19T10:22:56.996Z,1.77
2022-10-19T10:25:27.248Z,2.40
2022-10-19T10:27:56.381Z,1.97
2022-10-19T10:30:24.645Z,1.90
2022-10-19T10:32:54.174Z,2.00
2022-10-19T10:35:24.896Z,1.57
2022-10-19T10:37:54.774Z,1.60
2022-10-19T10:40:24.780Z,2.27
2022-10-19T10:42:53.645Z,1.70
2022-10-19T10:45:24.474Z,2.37
2022-10-19T10:47:52.892Z,1.40
2022-10-19T10:50:22.936Z,2.47
2022-10-19T10:53:02.529Z,2.50
2022-10-19T10:55:31.415Z,2.20
2022-10-19T10:58:06.727Z,2.90
2022-10-19T11:00:38.859Z,1.60
2022-10-19T11:03:09.746Z,1.93
2022-10-19T11:05:40.581Z,1.60
2022-10-19T11:08:22.636Z,2.00
2022-10-19T11:10:53.589Z,1.80
2022-10-19T11:13:25.697Z,2.27
2022-10-19T11:15:55.388Z,1.60
2022-10-19T11:18:25.981Z,1.90
2022-10-19T11:20:57.206Z,1.87
2022-10-19T11:23:37.106Z,2.63
2022-10-19T11:26:10.639Z,2.27
2022-10-19T11:28:46.067Z,2.27
2022-10-19T11:31:18.276Z,2.10
2022-10-19T11:33:52.086Z,2.50
2022-10-19T11:36:25.413Z,2.90
2022-10-19T11:38:59.843Z,2.20
2022-10-19T11:41:31.155Z,2.20
2022-10-19T11:44:08.156Z,2.30
2022-10-19T11:46:39.695Z,1.90
2022-10-19T11:49:18.513Z,2.40
2022-10-19T11:51:49.881Z,1.70
2022-10-19T11:54:24.995Z,3.00
2022-10-19T11:57:04.081Z,2.63
2022-10-19T11:59:37.576Z,2.67
2022-10-19T12:02:13.534Z,2.50
2022-10-19T12:04:45.666Z,2.43
2022-10-19T12:07:20.944Z,2.53
2022-10-19T12:09:55.655Z,2.90
2022-10-19T12:12:26.861Z,2.47
2022-10-19T12:14:56.828Z,2.10
2022-10-19T12:17:28.374Z,2.35
2022-10-19T12:19:59.827Z,2.27
2022-10-19T12:22:29.967Z,2.33
2022-10-19T12:25:00.730Z,2.60
2022-10-19T12:27:31.829Z,3.07
2022-10-19T12:30:04.082Z,2.33
2022-10-19T12:32:35.456Z,2.08
2022-10-19T12:35:09.568Z,2.10
2022-10-19T12:37:42.911Z,2.23
2022-10-19T12:40:18.973Z,3.60
2022-10-19T12:42:51.870Z,1.80
2022-10-19T12:45:32.417Z,1.90
2022-10-19T12:48:20.060Z,2.40
2022-10-19T12:51:06.951Z,2.50
2022-10-19T12:53:38.018Z,2.43
2022-10-19T12:56:08.830Z,2.07
2022-10-19T12:58:43.637Z,1.90
2022-10-19T13:01:17.876Z,2.10
2022-10-19T13:03:47.002Z,2.40
2022-10-19T13:06:18.235Z,2.20
2022-10-19T13:08:48.457Z,2.40
2022-10-19T13:11:18.037Z,1.90
2022-10-19T13:13:55.091Z,2.00
2022-10-19T13:16:41.491Z,1.80
2022-10-19T13:19:23.111Z,2.20
2022-10-19T13:21:53.240Z,1.90
2022-10-19T13:24:27.550Z,1.80
2022-10-19T13:27:10.692Z,2.00
2022-10-19T13:29:44.765Z,1.95
2022-10-19T13:32:32.458Z,2.00
2022-10-19T13:35:15.926Z,2.10
2022-10-19T13:37:44.865Z,1.80
2022-10-19T13:40:24.468Z,1.80
2022-10-19T13:42:59.501Z,2.03
2022-10-19T13:45:29.146Z,1.90
2022-10-19T13:48:00.310Z,1.97
2022-10-19T13:50:36.502Z,1.80
2022-10-19T13:53:20.486Z,2.00
2022-10-19T13:55:59.486Z,1.77
2022-10-19T13:58:56.432Z,1.97
2022-10-19T14:01:33.817Z,1.70
2022-10-19T14:04:08.883Z,2.10
2022-10-19T14:06:40.371Z,1.80
2022-10-19T14:09:35.757Z,1.60
2022-10-19T14:12:08.052Z,1.50
2022-10-19T14:14:42.908Z,1.90
2022-10-19T14:17:19.676Z,1.70
2022-10-19T14:19:48.813Z,1.60
2022-10-19T14:22:21.580Z,1.67
2022-10-19T14:24:49.757Z,2.00
2022-10-19T14:27:19.991Z,1.77
2022-10-19T14:29:49.449Z,1.93
2022-10-19T14:32:19.363Z,2.03
2022-10-19T14:34:48.780Z,1.80
2022-10-19T14:37:19.182Z,1.57
2022-10-19T14:39:59.858Z,1.77
2022-10-19T14:42:37.417Z,2.00
2022-10-19T14:45:09.166Z,2.00
2022-10-19T14:47:38.697Z,1.73
2022-10-19T14:50:07.477Z,2.57
2022-10-19T14:52:38.999Z,2.20
2022-10-19T14:55:12.678Z,1.73
2022-10-19T14:57:45.617Z,1.80
2022-10-19T15:00:18.732Z,1.60
2022-10-19T15:02:49.711Z,1.40
2022-10-19T15:05:20.863Z,1.87
2022-10-19T15:07:49.577Z,1.63
2022-10-19T15:10:20.661Z,1.70
2022-10-19T15:12:50.280Z,1.80
2022-10-19T15:15:20.928Z,1.80
2022-10-19T15:17:54.961Z,2.20
2022-10-19T15:20:26.189Z,2.47
2022-10-19T15:22:54.355Z,1.60
2022-10-19T15:25:30.304Z,1.87
2022-10-19T15:27:58.577Z,2.17
2022-10-19T15:30:28.494Z,1.90
2022-10-19T15:33:09.347Z,1.90
2022-10-19T15:35:38.752Z,1.80
2022-10-19T15:38:09.883Z,1.70
2022-10-19T15:40:39.734Z,2.20
2022-10-19T15:43:36.253Z,1.70
2022-10-19T15:46:06.060Z,1.93
2022-10-19T15:48:50.071Z,2.30
2022-10-19T15:51:38.225Z,2.57
2022-10-19T15:54:07.926Z,2.20
2022-10-19T15:56:37.000Z,2.30
2022-10-19T15:59:06.447Z,2.03
2022-10-19T16:01:35.294Z,2.50
2022-10-19T16:04:04.914Z,3.87
2022-10-19T16:06:34.392Z,5.57
2022-10-19T16:09:02.684Z,4.47
2022-10-19T16:11:31.597Z,3.50
2022-10-19T16:13:59.804Z,4.03
2022-10-19T16:16:33.351Z,3.13
2022-10-19T16:19:02.424Z,4.23
2022-10-19T16:21:33.639Z,3.87
2022-10-19T16:24:02.296Z,4.40
2022-10-19T16:26:32.035Z,4.20
2022-10-19T16:29:00.798Z,4.30
2022-10-19T16:31:29.105Z,4.20
2022-10-19T16:33:57.353Z,3.10
2022-10-19T16:36:25.549Z,3.00
2022-10-19T16:38:55.131Z,2.23
2022-10-19T16:41:23.357Z,2.53
2022-10-19T16:43:55.815Z,2.50
2022-10-19T16:46:26.069Z,2.43
2022-10-19T16:48:54.304Z,3.20
2022-10-19T16:51:24.872Z,2.67
2022-10-19T16:53:57.038Z,2.57
2022-10-19T16:56:26.031Z,3.13
2022-10-19T16:58:58.026Z,2.90
2022-10-19T17:01:26.261Z,3.27
2022-10-19T17:03:55.377Z,2.93
2022-10-19T17:06:24.270Z,3.30
2022-10-19T17:09:29.903Z,3.70
2022-10-19T17:11:43.135Z,3.17
2022-10-19T17:14:13.166Z,3.10
2022-10-19T17:16:41.801Z,2.90
2022-10-19T17:19:10.341Z,3.23
2022-10-19T17:21:39.636Z,3.13
2022-10-19T17:24:08.470Z,2.83
2022-10-19T17:26:37.932Z,2.97
2022-10-19T17:29:08.009Z,2.93
2022-10-19T17:31:36.989Z,3.10
2022-10-19T17:34:05.769Z,2.80
2022-10-19T17:36:35.873Z,3.67
2022-10-19T17:39:07.381Z,3.27
2022-10-19T17:41:35.609Z,3.30
2022-10-19T17:44:04.653Z,3.77
2022-10-19T17:46:35.283Z,4.77
2022-10-19T17:49:03.662Z,2.60
2022-10-19T17:51:33.574Z,3.03
2022-10-19T17:54:02.819Z,2.97
2022-10-19T17:56:31.299Z,4.83
2022-10-19T17:58:59.689Z,3.13
2022-10-19T18:01:28.317Z,2.60
2022-10-19T18:03:58.403Z,2.90
2022-10-19T18:06:27.462Z,3.30
2022-10-19T18:08:56.627Z,2.97
2022-10-19T18:11:26.683Z,3.00
2022-10-19T18:13:58.327Z,3.03
2022-10-19T18:16:27.728Z,3.57
2022-10-19T18:18:56.841Z,5.10
2022-10-19T18:21:27.165Z,3.23
2022-10-19T18:23:57.115Z,3.03
2022-10-19T18:26:26.697Z,3.10
2022-10-19T18:28:57.568Z,3.00
2022-10-19T18:31:28.593Z,2.90
2022-10-19T18:33:57.528Z,3.40
2022-10-19T18:36:27.349Z,2.93
2022-10-19T18:38:56.250Z,3.53
2022-10-19T18:41:25.115Z,3.33
2022-10-19T18:43:54.510Z,3.60
2022-10-19T18:46:23.284Z,3.40
2022-10-19T18:48:51.578Z,7.10
2022-10-19T18:51:20.950Z,4.97
2022-10-19T18:53:50.780Z,3.50
2022-10-19T18:56:20.214Z,3.60
2022-10-19T18:58:48.575Z,3.57
2022-10-19T19:01:18.202Z,3.60
2022-10-19T19:03:49.561Z,3.73
2022-10-19T19:06:19.094Z,3.90
2022-10-19T19:08:47.328Z,3.60
2022-10-19T19:11:18.097Z,3.67
2022-10-19T19:13:48.953Z,4.00
2022-10-19T19:16:17.227Z,3.63
2022-10-19T19:18:45.465Z,3.33
2022-10-19T19:21:18.606Z,3.77
2022-10-19T19:23:47.148Z,3.30
2022-10-19T19:26:17.364Z,3.80
2022-10-19T19:28:49.107Z,3.53
2022-10-19T19:31:19.689Z,3.70
2022-10-19T19:33:48.365Z,3.57
2022-10-19T19:36:17.760Z,3.50
2022-10-19T19:38:46.622Z,3.70
2022-10-19T19:41:16.196Z,3.37
2022-10-19T19:43:45.766Z,4.50
2022-10-19T19:46:15.070Z,3.67
2022-10-19T19:48:44.266Z,3.57
2022-10-19T19:51:14.108Z,3.73
2022-10-19T19:53:42.570Z,3.47
2022-10-19T19:56:11.963Z,3.60
2022-10-19T19:58:40.207Z,3.57
2022-10-19T20:01:13.630Z,3.77
2022-10-19T20:03:42.639Z,3.43
2022-10-19T20:06:11.326Z,3.83
2022-10-19T20:08:39.940Z,3.80
2022-10-19T20:11:09.242Z,3.90
2022-10-19T20:13:37.521Z,4.13
2022-10-19T20:16:08.955Z,5.20
2022-10-19T20:18:38.576Z,4.20
2022-10-19T20:21:07.427Z,3.77
2022-10-19T20:23:35.730Z,4.20
2022-10-19T20:26:04.221Z,3.53
2022-10-19T20:28:33.444Z,4.13
2022-10-19T20:31:02.392Z,4.47
2022-10-19T20:33:31.306Z,4.00
2022-10-19T20:36:03.718Z,4.20
2022-10-19T20:38:31.959Z,4.17
2022-10-19T20:41:01.957Z,4.30
2022-10-19T20:43:32.436Z,3.97
2022-10-19T20:46:03.825Z,3.80
2022-10-19T20:48:32.413Z,3.90
2022-10-19T20:51:12.337Z,3.80
2022-10-19T20:53:40.607Z,4.07
2022-10-19T20:56:10.291Z,4.10
2022-10-19T20:58:40.450Z,3.83
2022-10-19T21:01:09.854Z,3.63
2022-10-19T21:03:38.068Z,3.60
2022-10-19T21:06:07.638Z,4.27
2022-10-19T21:08:37.223Z,3.67
2022-10-19T21:11:13.210Z,3.87
2022-10-19T21:13:41.605Z,3.93
2022-10-19T21:16:10.712Z,3.80
2022-10-19T21:18:39.166Z,3.83
2022-10-19T21:21:14.542Z,3.33
2022-10-19T21:23:44.412Z,3.50
2022-10-19T21:26:12.990Z,3.77
2022-10-19T21:28:41.734Z,3.50
2022-10-19T21:31:10.906Z,3.93
2022-10-19T21:33:39.131Z,3.70
2022-10-19T21:36:08.509Z,3.67
2022-10-19T21:38:37.091Z,4.00
2022-10-19T21:41:12.126Z,3.60
2022-10-19T21:43:40.533Z,4.10
2022-10-19T21:46:09.473Z,3.40
2022-10-19T21:48:38.173Z,3.37
2022-10-19T21:51:13.224Z,3.57
2022-10-19T21:53:41.453Z,3.73
2022-10-19T21:56:11.070Z,3.47
2022-10-19T21:58:39.263Z,3.30
2022-10-19T22:01:07.887Z,3.20
2022-10-19T22:03:36.269Z,3.57
2022-10-19T22:06:04.510Z,3.50
2022-10-19T22:08:32.748Z,3.30
2022-10-19T22:11:05.431Z,3.20
2022-10-19T22:13:35.063Z,3.20
2022-10-19T22:16:06.835Z,2.97
2022-10-19T22:18:51.714Z,3.07
2022-10-19T22:21:29.477Z,3.10
2022-10-19T22:23:58.922Z,3.50
2022-10-19T22:26:28.400Z,2.87
2022-10-19T22:28:58.614Z,2.80
2022-10-19T22:31:27.311Z,2.90
2022-10-19T22:33:55.646Z,3.27
2022-10-19T22:36:23.920Z,3.17
2022-10-19T22:38:52.157Z,2.97
2022-10-19T22:41:20.345Z,3.30
2022-10-19T22:43:48.617Z,3.20
2022-10-19T22:46:18.224Z,3.20
2022-10-19T22:48:46.455Z,2.73
2022-10-19T22:51:14.668Z,3.00
2022-10-19T22:53:42.937Z,3.00
2022-10-19T22:56:12.381Z,2.90
2022-10-19T22:58:40.784Z,3.10
2022-10-19T23:01:09.966Z,2.90
2022-10-19T23:03:40.307Z,2.90
2022-10-19T23:06:08.873Z,2.70
2022-10-19T23:08:37.292Z,3.17
2022-10-19T23:11:05.760Z,2.97
2022-10-19T23:13:34.041Z,3.13
2022-10-19T23:16:02.281Z,2.90
2022-10-19T23:18:32.049Z,2.97
2022-10-19T23:21:02.543Z,2.70
2022-10-19T23:23:32.075Z,3.13
2022-10-19T23:26:01.473Z,2.87
2022-10-19T23:28:30.081Z,2.90
2022-10-19T23:30:59.337Z,2.57
2022-10-19T23:33:27.887Z,2.70
2022-10-19T23:35:56.086Z,2.90
2022-10-19T23:38:25.726Z,2.80
2022-10-19T23:40:53.984Z,2.80
2022-10-19T23:43:22.157Z,2.73
2022-10-19T23:45:50.384Z,2.97
2022-10-19T23:48:18.588Z,2.80
2022-10-19T23:50:46.787Z,3.03
2022-10-19T23:53:15.009Z,3.03
2022-10-19T23:55:44.573Z,3.17
2022-10-19T23:58:13.039Z,3.33
